Hattiesburg Bobby L Chain Municipal Airport
KHBG : now visible

Airfield :











YOU CAN JOIN US ON...

 
LOGIN :

Register | Disclaimer

   EN    FR    IT 

 









Legend :    VFR   Marginal VFR   IFR   Intensive IFR   Very Intensive IFR
Visi :
Ceiling :
>= 8 km
>= 3000ft
5 to 8 km
1000 to 3000 ft
1500m to 5 km
500 to 1000 ft
800 to 1500m
200 to 500 ft
< 800m
< 200 ft
Symbols :   Thunderstorms  Fog  Heavy snow  Heavy precipitations  Wind > 20 kt







- Airport Elevation : 151 ft


KHBG - Hattiesburg Bobby L Chain Municipal

CURRENT METAR :
  • 151153Z AUTO 00000KT 9SM CLR 22/20 A3009 RMK AO2 SLP187 T02170200 10239 20211 53009 $

EXPIRED METARs :
  • 151053Z AUTO 00000KT 10SM CLR 22/20 A3008 RMK AO2 SLP182 T02220200 $
  • 150953Z AUTO 29003KT 10SM CLR 22/21 A3006 RMK AO2 SLP177 T02220206 $

TAF KHBG
Valid from the 15 at 12:00 until the 16 at 12:00 UTC


151126Z 1512/1612 00000KT P6SM SKC
FM151330 06008KT P6SM FEW060
No reported NOTAMs for that airfield.



MET'MAP, your aeronautical weather chart ! - Copyright ORBIFLY December 2007 - Disclaimer

ORBIFLY MET'MAP TEAM :

Programming & Development : Alexandra Zaïnal
Concept & Development : Baudouin d'Aumeries
Co-Development & Prog : Marc-Olivier Méhu
Technical & hardware support : Manuel Goepfert

Contact : metmap@orbifly.com




SOURCES & CREDITS :

   NOAA       Earth
Advisory